Portada
METAR-TAF:

METAR-TAF

Aeroports :

Bisha, Aràbia Saudita

latitud: 19-59N, longitud: 042-37E, altitud: 1167 m

Observació

L'informe es va fer fa 1 hora i 11 minuts, a les 05:00 UTC
Vent calma
Temperatura 29°C
Humitat 29%
Pressió 1013 hPa
Visibilitat 10 km o més
sense núvols per sota de 1500 mi sense presència de cumulonimbus.

METAR: OEBH 220500Z 00000KT CAVOK 29/09 Q1013 NOSIG

Hora: 09:11 (06:11 UTC)

Pronòstic

L'informe es va fer fa 7 hores i 11 minuts, a les 23:00 UTC
Pronòstic vàlid del 22 a les 00 UTC al 23 a les 06 UTC
Vent 3 kt amb direcció variable
Visibilitat: 7000 m
Escasses núvols a una alçada de 3000 ft
Evolucionant progressivament
l' 22 a les 06 UTC al 22 a les 08 UTC
Vent 10 kt del Nord/Nord-Oest

TAF: OEBH 212300Z 2200/2306 VRB03KT 7000 FEW030 BECMG 2206/2208 34010KT

Observacions i pronòstics meteorològics de més de 4000 aeroports (METAR i TAF).

Les estacions disponibles són els punts grocs i vermells al mapa.

Posi el ratolí al punt desitjat per veure el nom de l'estació.

Feu clic per veure les observacions i els pronòstics meteorològics.

Per canviar el mapa: feu clic els botons verds amb una creu de color negre per apropar; al botó verd amb un guió per allunyar la imatge; o en les fletxes verdes per a mapes adjacents.


METAR-TAF: